sensor_id;sensor_type;location;lat;lon;timestamp;P1;durP1;ratioP1;P2;durP2;ratioP2
58760;SDS011;44529;47.464;19.014;2022-07-12T00:01:36;7.72;;;4.60;;
58760;SDS011;44529;47.464;19.014;2022-07-12T00:04:44;8.68;;;3.72;;
58760;SDS011;44529;47.464;19.014;2022-07-12T00:07:46;6.75;;;3.72;;
58760;SDS011;44529;47.464;19.014;2022-07-12T00:10:49;4.78;;;2.85;;
58760;SDS011;44529;47.464;19.014;2022-07-12T00:13:52;4.43;;;2.40;;
58760;SDS011;44529;47.464;19.014;2022-07-12T00:16:54;7.65;;;2.87;;
58760;SDS011;44529;47.464;19.014;2022-07-12T00:19:56;4.43;;;2.00;;
58760;SDS011;44529;47.464;19.014;2022-07-12T00:22:59;6.12;;;2.30;;
58760;SDS011;44529;47.464;19.014;2022-07-12T00:26:01;3.00;;;2.20;;
58760;SDS011;44529;47.464;19.014;2022-07-12T00:29:06;5.62;;;2.33;;
58760;SDS011;44529;47.464;19.014;2022-07-12T00:32:08;6.60;;;2.40;;
58760;SDS011;44529;47.464;19.014;2022-07-12T00:35:11;2.25;;;2.03;;
58760;SDS011;44529;47.464;19.014;2022-07-12T00:38:13;5.47;;;2.70;;
58760;SDS011;44529;47.464;19.014;2022-07-12T00:41:16;4.65;;;2.75;;
58760;SDS011;44529;47.464;19.014;2022-07-12T00:44:18;4.55;;;2.60;;
58760;SDS011;44529;47.464;19.014;2022-07-12T00:47:37;6.57;;;2.75;;
58760;SDS011;44529;47.464;19.014;2022-07-12T00:50:46;5.85;;;1.80;;
58760;SDS011;44529;47.464;19.014;2022-07-12T00:53:49;3.33;;;1.58;;
58760;SDS011;44529;47.464;19.014;2022-07-12T00:56:53;5.05;;;1.75;;
58760;SDS011;44529;47.464;19.014;2022-07-12T00:59:55;6.25;;;1.40;;
58760;SDS011;44529;47.464;19.014;2022-07-12T01:02:58;4.53;;;1.75;;
58760;SDS011;44529;47.464;19.014;2022-07-12T01:06:03;1.37;;;1.20;;
58760;SDS011;44529;47.464;19.014;2022-07-12T01:09:08;3.80;;;1.58;;
58760;SDS011;44529;47.464;19.014;2022-07-12T01:12:10;2.42;;;1.33;;
58760;SDS011;44529;47.464;19.014;2022-07-12T01:15:13;3.67;;;1.40;;
58760;SDS011;44529;47.464;19.014;2022-07-12T01:18:15;3.35;;;1.20;;
58760;SDS011;44529;47.464;19.014;2022-07-12T01:21:19;4.28;;;1.48;;
58760;SDS011;44529;47.464;19.014;2022-07-12T01:24:24;3.17;;;1.60;;
58760;SDS011;44529;47.464;19.014;2022-07-12T01:27:26;3.47;;;1.30;;
58760;SDS011;44529;47.464;19.014;2022-07-12T01:30:29;3.42;;;1.35;;
58760;SDS011;44529;47.464;19.014;2022-07-12T01:33:32;2.58;;;1.42;;
58760;SDS011;44529;47.464;19.014;2022-07-12T01:36:36;3.20;;;1.48;;
58760;SDS011;44529;47.464;19.014;2022-07-12T01:39:39;2.55;;;1.80;;
58760;SDS011;44529;47.464;19.014;2022-07-12T01:42:42;4.07;;;1.67;;
58760;SDS011;44529;47.464;19.014;2022-07-12T01:45:46;3.90;;;1.42;;
58760;SDS011;44529;47.464;19.014;2022-07-12T01:48:48;4.60;;;1.33;;
58760;SDS011;44529;47.464;19.014;2022-07-12T01:51:50;6.35;;;1.20;;
58760;SDS011;44529;47.464;19.014;2022-07-12T01:54:53;2.92;;;1.48;;
58760;SDS011;44529;47.464;19.014;2022-07-12T01:57:56;2.22;;;1.45;;
58760;SDS011;44529;47.464;19.014;2022-07-12T02:00:58;5.53;;;1.45;;
58760;SDS011;44529;47.464;19.014;2022-07-12T02:04:04;4.25;;;1.62;;
58760;SDS011;44529;47.464;19.014;2022-07-12T02:07:07;6.80;;;1.65;;
58760;SDS011;44529;47.464;19.014;2022-07-12T02:10:09;3.47;;;1.50;;
58760;SDS011;44529;47.464;19.014;2022-07-12T02:13:11;4.00;;;1.40;;
58760;SDS011;44529;47.464;19.014;2022-07-12T02:16:14;2.75;;;1.58;;
58760;SDS011;44529;47.464;19.014;2022-07-12T02:19:16;2.12;;;1.20;;
58760;SDS011;44529;47.464;19.014;2022-07-12T02:22:18;4.10;;;1.02;;
58760;SDS011;44529;47.464;19.014;2022-07-12T02:25:21;1.23;;;0.80;;
58760;SDS011;44529;47.464;19.014;2022-07-12T02:28:24;4.10;;;0.90;;
58760;SDS011;44529;47.464;19.014;2022-07-12T02:31:26;1.35;;;0.40;;
58760;SDS011;44529;47.464;19.014;2022-07-12T02:34:29;0.70;;;0.60;;
58760;SDS011;44529;47.464;19.014;2022-07-12T02:37:32;2.40;;;0.70;;
58760;SDS011;44529;47.464;19.014;2022-07-12T02:40:42;1.05;;;0.82;;
58760;SDS011;44529;47.464;19.014;2022-07-12T02:44:04;1.10;;;0.80;;
58760;SDS011;44529;47.464;19.014;2022-07-12T02:47:07;2.60;;;1.27;;
58760;SDS011;44529;47.464;19.014;2022-07-12T02:50:09;2.92;;;1.45;;
58760;SDS011;44529;47.464;19.014;2022-07-12T02:53:11;3.25;;;1.30;;
58760;SDS011;44529;47.464;19.014;2022-07-12T02:56:14;5.07;;;1.58;;
58760;SDS011;44529;47.464;19.014;2022-07-12T02:59:16;2.53;;;0.90;;
58760;SDS011;44529;47.464;19.014;2022-07-12T03:02:19;1.02;;;0.70;;
58760;SDS011;44529;47.464;19.014;2022-07-12T03:05:21;1.02;;;0.77;;
58760;SDS011;44529;47.464;19.014;2022-07-12T03:08:34;2.60;;;0.88;;
58760;SDS011;44529;47.464;19.014;2022-07-12T03:11:37;3.83;;;0.80;;
58760;SDS011;44529;47.464;19.014;2022-07-12T03:14:39;1.10;;;0.70;;
58760;SDS011;44529;47.464;19.014;2022-07-12T03:17:41;3.20;;;0.93;;
58760;SDS011;44529;47.464;19.014;2022-07-12T03:20:44;3.20;;;0.80;;
58760;SDS011;44529;47.464;19.014;2022-07-12T03:23:46;0.90;;;0.70;;
58760;SDS011;44529;47.464;19.014;2022-07-12T03:26:49;2.55;;;0.80;;
58760;SDS011;44529;47.464;19.014;2022-07-12T03:29:51;2.87;;;1.00;;
58760;SDS011;44529;47.464;19.014;2022-07-12T03:32:53;1.77;;;1.10;;
58760;SDS011;44529;47.464;19.014;2022-07-12T03:35:57;3.45;;;1.00;;
58760;SDS011;44529;47.464;19.014;2022-07-12T03:38:59;2.92;;;0.90;;
58760;SDS011;44529;47.464;19.014;2022-07-12T03:42:01;3.85;;;0.98;;
58760;SDS011;44529;47.464;19.014;2022-07-12T03:45:04;3.40;;;0.93;;
58760;SDS011;44529;47.464;19.014;2022-07-12T03:48:07;1.58;;;0.80;;
58760;SDS011;44529;47.464;19.014;2022-07-12T03:51:10;1.95;;;1.00;;
58760;SDS011;44529;47.464;19.014;2022-07-12T03:54:12;3.97;;;1.40;;
58760;SDS011;44529;47.464;19.014;2022-07-12T03:57:14;1.77;;;1.05;;
58760;SDS011;44529;47.464;19.014;2022-07-12T04:00:17;2.67;;;1.25;;
58760;SDS011;44529;47.464;19.014;2022-07-12T04:03:19;2.42;;;1.00;;
58760;SDS011;44529;47.464;19.014;2022-07-12T04:06:21;3.17;;;1.20;;
58760;SDS011;44529;47.464;19.014;2022-07-12T04:09:24;5.00;;;1.37;;
58760;SDS011;44529;47.464;19.014;2022-07-12T04:12:26;3.33;;;1.17;;
58760;SDS011;44529;47.464;19.014;2022-07-12T04:15:28;4.72;;;1.58;;
58760;SDS011;44529;47.464;19.014;2022-07-12T04:18:31;2.17;;;1.10;;
58760;SDS011;44529;47.464;19.014;2022-07-12T04:21:35;2.75;;;0.98;;
58760;SDS011;44529;47.464;19.014;2022-07-12T04:24:38;2.60;;;1.25;;
58760;SDS011;44529;47.464;19.014;2022-07-12T04:27:40;1.33;;;1.00;;
58760;SDS011;44529;47.464;19.014;2022-07-12T04:30:42;1.35;;;0.80;;
58760;SDS011;44529;47.464;19.014;2022-07-12T04:33:46;0.88;;;0.65;;
58760;SDS011;44529;47.464;19.014;2022-07-12T04:36:48;2.05;;;0.95;;
58760;SDS011;44529;47.464;19.014;2022-07-12T04:39:51;2.72;;;1.45;;
58760;SDS011;44529;47.464;19.014;2022-07-12T04:42:53;3.10;;;0.93;;
58760;SDS011;44529;47.464;19.014;2022-07-12T04:46:00;2.62;;;0.82;;
58760;SDS011;44529;47.464;19.014;2022-07-12T04:52:09;3.33;;;0.90;;
58760;SDS011;44529;47.464;19.014;2022-07-12T04:55:11;2.05;;;1.10;;
58760;SDS011;44529;47.464;19.014;2022-07-12T04:58:14;1.70;;;0.85;;
58760;SDS011;44529;47.464;19.014;2022-07-12T05:01:16;3.90;;;0.52;;
58760;SDS011;44529;47.464;19.014;2022-07-12T05:04:19;1.42;;;0.80;;
58760;SDS011;44529;47.464;19.014;2022-07-12T05:07:21;3.53;;;1.12;;
58760;SDS011;44529;47.464;19.014;2022-07-12T05:10:23;1.50;;;0.80;;
58760;SDS011;44529;47.464;19.014;2022-07-12T05:13:26;6.47;;;1.70;;
58760;SDS011;44529;47.464;19.014;2022-07-12T05:16:28;3.70;;;1.52;;
58760;SDS011;44529;47.464;19.014;2022-07-12T05:19:31;3.45;;;0.98;;
58760;SDS011;44529;47.464;19.014;2022-07-12T05:22:33;1.87;;;0.65;;
58760;SDS011;44529;47.464;19.014;2022-07-12T05:25:35;1.55;;;0.70;;
58760;SDS011;44529;47.464;19.014;2022-07-12T05:28:39;1.60;;;0.73;;
58760;SDS011;44529;47.464;19.014;2022-07-12T05:31:42;3.65;;;0.98;;
58760;SDS011;44529;47.464;19.014;2022-07-12T05:34:44;2.15;;;0.90;;
58760;SDS011;44529;47.464;19.014;2022-07-12T05:37:46;2.08;;;0.70;;
58760;SDS011;44529;47.464;19.014;2022-07-12T05:40:49;2.78;;;1.00;;
58760;SDS011;44529;47.464;19.014;2022-07-12T05:43:51;1.90;;;0.60;;
58760;SDS011;44529;47.464;19.014;2022-07-12T05:46:53;1.75;;;1.00;;
58760;SDS011;44529;47.464;19.014;2022-07-12T05:49:55;2.65;;;0.70;;
58760;SDS011;44529;47.464;19.014;2022-07-12T05:52:58;2.65;;;0.50;;
58760;SDS011;44529;47.464;19.014;2022-07-12T05:56:18;1.65;;;0.70;;
58760;SDS011;44529;47.464;19.014;2022-07-12T05:59:21;3.67;;;0.90;;
58760;SDS011;44529;47.464;19.014;2022-07-12T06:02:23;1.98;;;1.27;;
58760;SDS011;44529;47.464;19.014;2022-07-12T06:05:30;2.92;;;0.82;;
58760;SDS011;44529;47.464;19.014;2022-07-12T06:08:32;2.72;;;0.80;;
58760;SDS011;44529;47.464;19.014;2022-07-12T06:11:34;3.00;;;1.00;;
58760;SDS011;44529;47.464;19.014;2022-07-12T06:14:36;4.05;;;0.80;;
58760;SDS011;44529;47.464;19.014;2022-07-12T06:17:39;3.47;;;0.68;;
58760;SDS011;44529;47.464;19.014;2022-07-12T06:20:41;1.27;;;0.77;;
58760;SDS011;44529;47.464;19.014;2022-07-12T06:23:43;1.25;;;0.73;;
58760;SDS011;44529;47.464;19.014;2022-07-12T06:26:45;1.20;;;0.75;;
58760;SDS011;44529;47.464;19.014;2022-07-12T06:29:48;1.73;;;0.90;;
58760;SDS011;44529;47.464;19.014;2022-07-12T06:32:50;2.03;;;0.75;;
58760;SDS011;44529;47.464;19.014;2022-07-12T06:35:53;1.75;;;1.15;;
58760;SDS011;44529;47.464;19.014;2022-07-12T06:38:55;0.98;;;0.75;;
58760;SDS011;44529;47.464;19.014;2022-07-12T06:41:58;2.50;;;0.90;;
58760;SDS011;44529;47.464;19.014;2022-07-12T06:45:08;1.23;;;0.85;;
58760;SDS011;44529;47.464;19.014;2022-07-12T06:48:12;34.72;;;2.95;;
58760;SDS011;44529;47.464;19.014;2022-07-12T06:51:14;3.80;;;1.37;;
58760;SDS011;44529;47.464;19.014;2022-07-12T06:54:16;1.45;;;0.90;;
58760;SDS011;44529;47.464;19.014;2022-07-12T06:57:18;3.12;;;0.95;;
58760;SDS011;44529;47.464;19.014;2022-07-12T07:00:21;1.27;;;0.85;;
58760;SDS011;44529;47.464;19.014;2022-07-12T07:03:23;2.40;;;0.82;;
58760;SDS011;44529;47.464;19.014;2022-07-12T07:06:26;3.60;;;1.15;;
58760;SDS011;44529;47.464;19.014;2022-07-12T07:09:28;1.62;;;0.80;;
58760;SDS011;44529;47.464;19.014;2022-07-12T07:12:30;0.65;;;0.50;;
58760;SDS011;44529;47.464;19.014;2022-07-12T07:15:32;6.18;;;1.17;;
58760;SDS011;44529;47.464;19.014;2022-07-12T07:18:35;0.88;;;0.80;;
58760;SDS011;44529;47.464;19.014;2022-07-12T07:21:37;2.90;;;1.35;;
58760;SDS011;44529;47.464;19.014;2022-07-12T07:24:39;3.75;;;1.00;;
58760;SDS011;44529;47.464;19.014;2022-07-12T07:27:42;1.00;;;0.90;;
58760;SDS011;44529;47.464;19.014;2022-07-12T07:30:46;1.08;;;0.82;;
58760;SDS011;44529;47.464;19.014;2022-07-12T07:33:54;2.97;;;1.02;;
58760;SDS011;44529;47.464;19.014;2022-07-12T07:36:56;2.45;;;0.93;;
58760;SDS011;44529;47.464;19.014;2022-07-12T07:39:59;2.08;;;1.08;;
58760;SDS011;44529;47.464;19.014;2022-07-12T07:43:01;5.90;;;0.93;;
58760;SDS011;44529;47.464;19.014;2022-07-12T07:46:03;2.75;;;0.90;;
58760;SDS011;44529;47.464;19.014;2022-07-12T07:49:06;5.05;;;0.88;;
58760;SDS011;44529;47.464;19.014;2022-07-12T07:52:08;1.37;;;0.70;;
58760;SDS011;44529;47.464;19.014;2022-07-12T07:55:10;1.45;;;0.62;;
58760;SDS011;44529;47.464;19.014;2022-07-12T07:58:14;0.70;;;0.70;;
58760;SDS011;44529;47.464;19.014;2022-07-12T08:01:16;3.17;;;0.80;;
58760;SDS011;44529;47.464;19.014;2022-07-12T08:04:19;2.25;;;0.80;;
58760;SDS011;44529;47.464;19.014;2022-07-12T08:07:31;2.75;;;0.68;;
58760;SDS011;44529;47.464;19.014;2022-07-12T08:10:53;4.40;;;0.80;;
58760;SDS011;44529;47.464;19.014;2022-07-12T08:13:56;1.50;;;0.77;;
58760;SDS011;44529;47.464;19.014;2022-07-12T08:16:58;1.48;;;1.00;;
58760;SDS011;44529;47.464;19.014;2022-07-12T08:20:00;2.12;;;0.90;;
58760;SDS011;44529;47.464;19.014;2022-07-12T08:23:25;1.85;;;0.75;;
58760;SDS011;44529;47.464;19.014;2022-07-12T08:26:27;2.83;;;0.90;;
58760;SDS011;44529;47.464;19.014;2022-07-12T08:29:30;1.70;;;0.90;;
58760;SDS011;44529;47.464;19.014;2022-07-12T08:32:32;4.78;;;0.88;;
58760;SDS011;44529;47.464;19.014;2022-07-12T08:35:34;1.20;;;0.70;;
58760;SDS011;44529;47.464;19.014;2022-07-12T08:38:37;4.45;;;0.77;;
58760;SDS011;44529;47.464;19.014;2022-07-12T08:41:40;2.28;;;0.82;;
58760;SDS011;44529;47.464;19.014;2022-07-12T08:44:43;2.67;;;0.88;;
58760;SDS011;44529;47.464;19.014;2022-07-12T08:47:45;5.25;;;0.80;;
58760;SDS011;44529;47.464;19.014;2022-07-12T08:51:04;10.10;;;1.60;;
58760;SDS011;44529;47.464;19.014;2022-07-12T08:54:09;3.85;;;0.82;;
58760;SDS011;44529;47.464;19.014;2022-07-12T08:57:12;1.42;;;0.70;;
58760;SDS011;44529;47.464;19.014;2022-07-12T09:00:30;6.97;;;1.02;;
58760;SDS011;44529;47.464;19.014;2022-07-12T09:03:33;2.50;;;1.10;;
58760;SDS011;44529;47.464;19.014;2022-07-12T09:06:36;4.22;;;1.10;;
58760;SDS011;44529;47.464;19.014;2022-07-12T09:09:38;5.18;;;1.17;;
58760;SDS011;44529;47.464;19.014;2022-07-12T09:12:41;4.18;;;1.10;;
58760;SDS011;44529;47.464;19.014;2022-07-12T09:15:48;4.75;;;0.82;;
58760;SDS011;44529;47.464;19.014;2022-07-12T09:22:14;1.55;;;0.65;;
58760;SDS011;44529;47.464;19.014;2022-07-12T09:25:20;3.05;;;1.02;;
58760;SDS011;44529;47.464;19.014;2022-07-12T09:28:23;1.92;;;0.75;;
58760;SDS011;44529;47.464;19.014;2022-07-12T09:31:37;5.20;;;0.80;;
58760;SDS011;44529;47.464;19.014;2022-07-12T09:35:04;2.80;;;1.73;;
58760;SDS011;44529;47.464;19.014;2022-07-12T09:38:25;3.55;;;0.80;;
58760;SDS011;44529;47.464;19.014;2022-07-12T09:41:35;2.58;;;0.60;;
58760;SDS011;44529;47.464;19.014;2022-07-12T09:44:44;3.05;;;0.70;;
58760;SDS011;44529;47.464;19.014;2022-07-12T09:47:47;2.28;;;0.75;;
58760;SDS011;44529;47.464;19.014;2022-07-12T09:50:52;7.40;;;0.90;;
58760;SDS011;44529;47.464;19.014;2022-07-12T09:53:54;1.52;;;0.50;;
58760;SDS011;44529;47.464;19.014;2022-07-12T09:57:01;8.18;;;0.90;;
58760;SDS011;44529;47.464;19.014;2022-07-12T10:00:05;3.40;;;0.70;;
58760;SDS011;44529;47.464;19.014;2022-07-12T10:03:12;1.33;;;0.77;;
58760;SDS011;44529;47.464;19.014;2022-07-12T10:06:28;1.50;;;0.70;;
58760;SDS011;44529;47.464;19.014;2022-07-12T10:09:36;2.83;;;1.25;;
58760;SDS011;44529;47.464;19.014;2022-07-12T10:12:46;3.08;;;1.00;;
58760;SDS011;44529;47.464;19.014;2022-07-12T10:15:48;4.93;;;0.65;;
58760;SDS011;44529;47.464;19.014;2022-07-12T10:22:22;3.67;;;0.62;;
58760;SDS011;44529;47.464;19.014;2022-07-12T10:29:02;1.95;;;0.62;;
58760;SDS011;44529;47.464;19.014;2022-07-12T10:31:56;2.35;;;0.82;;
58760;SDS011;44529;47.464;19.014;2022-07-12T10:34:59;4.07;;;0.90;;
58760;SDS011;44529;47.464;19.014;2022-07-12T10:41:18;2.58;;;1.23;;
58760;SDS011;44529;47.464;19.014;2022-07-12T10:47:55;2.75;;;0.75;;
58760;SDS011;44529;47.464;19.014;2022-07-12T10:50:58;4.25;;;1.00;;
58760;SDS011;44529;47.464;19.014;2022-07-12T10:54:18;4.30;;;1.00;;
58760;SDS011;44529;47.464;19.014;2022-07-12T10:57:42;4.10;;;1.10;;
58760;SDS011;44529;47.464;19.014;2022-07-12T11:00:46;3.25;;;0.88;;
58760;SDS011;44529;47.464;19.014;2022-07-12T11:04:05;2.05;;;0.80;;
58760;SDS011;44529;47.464;19.014;2022-07-12T11:07:09;1.75;;;0.93;;
58760;SDS011;44529;47.464;19.014;2022-07-12T11:10:12;1.48;;;0.65;;
58760;SDS011;44529;47.464;19.014;2022-07-12T11:13:21;0.93;;;0.50;;
58760;SDS011;44529;47.464;19.014;2022-07-12T11:16:28;3.50;;;0.88;;
58760;SDS011;44529;47.464;19.014;2022-07-12T11:19:32;2.25;;;0.85;;
58760;SDS011;44529;47.464;19.014;2022-07-12T11:22:36;4.62;;;0.80;;
58760;SDS011;44529;47.464;19.014;2022-07-12T11:25:46;0.88;;;0.70;;
58760;SDS011;44529;47.464;19.014;2022-07-12T11:28:57;2.33;;;0.73;;
58760;SDS011;44529;47.464;19.014;2022-07-12T11:32:03;2.60;;;0.75;;
58760;SDS011;44529;47.464;19.014;2022-07-12T11:35:23;6.35;;;0.90;;
58760;SDS011;44529;47.464;19.014;2022-07-12T11:38:27;3.12;;;1.10;;
58760;SDS011;44529;47.464;19.014;2022-07-12T11:41:37;0.80;;;0.70;;
58760;SDS011;44529;47.464;19.014;2022-07-12T11:47:52;1.42;;;0.90;;
58760;SDS011;44529;47.464;19.014;2022-07-12T11:50:55;3.53;;;0.90;;
58760;SDS011;44529;47.464;19.014;2022-07-12T11:53:58;0.85;;;0.77;;
58760;SDS011;44529;47.464;19.014;2022-07-12T11:57:08;2.97;;;0.80;;
58760;SDS011;44529;47.464;19.014;2022-07-12T12:00:12;2.92;;;0.35;;
58760;SDS011;44529;47.464;19.014;2022-07-12T12:03:25;0.98;;;0.50;;
58760;SDS011;44529;47.464;19.014;2022-07-12T12:06:29;0.62;;;0.52;;
58760;SDS011;44529;47.464;19.014;2022-07-12T12:09:56;3.10;;;0.60;;
58760;SDS011;44529;47.464;19.014;2022-07-12T12:13:17;1.37;;;0.90;;
58760;SDS011;44529;47.464;19.014;2022-07-12T12:16:20;3.58;;;0.50;;
58760;SDS011;44529;47.464;19.014;2022-07-12T12:19:22;1.75;;;0.60;;
58760;SDS011;44529;47.464;19.014;2022-07-12T12:22:33;2.87;;;0.55;;
58760;SDS011;44529;47.464;19.014;2022-07-12T12:25:42;2.12;;;0.93;;
58760;SDS011;44529;47.464;19.014;2022-07-12T12:28:46;0.65;;;0.50;;
58760;SDS011;44529;47.464;19.014;2022-07-12T12:31:56;1.02;;;0.50;;
58760;SDS011;44529;47.464;19.014;2022-07-12T12:35:06;2.12;;;0.88;;
58760;SDS011;44529;47.464;19.014;2022-07-12T12:41:16;13.68;;;1.55;;
58760;SDS011;44529;47.464;19.014;2022-07-12T12:44:19;4.05;;;0.60;;
58760;SDS011;44529;47.464;19.014;2022-07-12T12:47:22;1.02;;;0.40;;
58760;SDS011;44529;47.464;19.014;2022-07-12T12:50:37;2.78;;;0.90;;
58760;SDS011;44529;47.464;19.014;2022-07-12T12:53:40;2.05;;;0.73;;
58760;SDS011;44529;47.464;19.014;2022-07-12T12:56:43;4.57;;;1.95;;
58760;SDS011;44529;47.464;19.014;2022-07-12T12:59:46;2.65;;;1.00;;
58760;SDS011;44529;47.464;19.014;2022-07-12T13:02:48;4.07;;;0.70;;
58760;SDS011;44529;47.464;19.014;2022-07-12T13:05:51;1.62;;;0.60;;
58760;SDS011;44529;47.464;19.014;2022-07-12T13:08:54;2.58;;;0.57;;
58760;SDS011;44529;47.464;19.014;2022-07-12T13:11:56;2.62;;;0.68;;
58760;SDS011;44529;47.464;19.014;2022-07-12T13:15:00;2.50;;;0.68;;
58760;SDS011;44529;47.464;19.014;2022-07-12T13:18:03;1.15;;;0.37;;
58760;SDS011;44529;47.464;19.014;2022-07-12T13:21:06;0.70;;;0.40;;
58760;SDS011;44529;47.464;19.014;2022-07-12T13:24:09;1.83;;;0.45;;
58760;SDS011;44529;47.464;19.014;2022-07-12T13:27:11;0.62;;;0.30;;
58760;SDS011;44529;47.464;19.014;2022-07-12T13:30:14;2.28;;;0.47;;
58760;SDS011;44529;47.464;19.014;2022-07-12T13:33:17;2.45;;;0.47;;
58760;SDS011;44529;47.464;19.014;2022-07-12T13:36:20;0.85;;;0.50;;
58760;SDS011;44529;47.464;19.014;2022-07-12T13:39:23;1.40;;;0.40;;
58760;SDS011;44529;47.464;19.014;2022-07-12T13:42:45;1.65;;;0.50;;
58760;SDS011;44529;47.464;19.014;2022-07-12T13:45:49;2.03;;;0.20;;
58760;SDS011;44529;47.464;19.014;2022-07-12T13:48:53;0.20;;;0.20;;
58760;SDS011;44529;47.464;19.014;2022-07-12T13:51:55;0.90;;;0.40;;
58760;SDS011;44529;47.464;19.014;2022-07-12T13:54:57;0.40;;;0.40;;
58760;SDS011;44529;47.464;19.014;2022-07-12T13:58:00;0.80;;;0.40;;
58760;SDS011;44529;47.464;19.014;2022-07-12T14:01:03;3.05;;;0.50;;
58760;SDS011;44529;47.464;19.014;2022-07-12T14:04:05;0.77;;;0.40;;
58760;SDS011;44529;47.464;19.014;2022-07-12T14:07:07;0.50;;;0.50;;
58760;SDS011;44529;47.464;19.014;2022-07-12T14:10:10;1.17;;;0.43;;
58760;SDS011;44529;47.464;19.014;2022-07-12T14:13:16;1.90;;;0.35;;
58760;SDS011;44529;47.464;19.014;2022-07-12T14:16:19;2.15;;;0.65;;
58760;SDS011;44529;47.464;19.014;2022-07-12T14:19:22;1.55;;;1.20;;
58760;SDS011;44529;47.464;19.014;2022-07-12T14:22:25;1.92;;;1.02;;
58760;SDS011;44529;47.464;19.014;2022-07-12T14:25:27;1.75;;;1.30;;
58760;SDS011;44529;47.464;19.014;2022-07-12T14:28:30;2.62;;;1.20;;
58760;SDS011;44529;47.464;19.014;2022-07-12T14:31:32;0.90;;;0.90;;
58760;SDS011;44529;47.464;19.014;2022-07-12T14:34:35;0.68;;;0.60;;
58760;SDS011;44529;47.464;19.014;2022-07-12T14:37:37;0.90;;;0.57;;
58760;SDS011;44529;47.464;19.014;2022-07-12T14:40:40;3.42;;;1.20;;
58760;SDS011;44529;47.464;19.014;2022-07-12T14:43:43;2.80;;;1.15;;
58760;SDS011;44529;47.464;19.014;2022-07-12T14:46:46;3.33;;;0.80;;
58760;SDS011;44529;47.464;19.014;2022-07-12T14:49:48;1.62;;;1.25;;
58760;SDS011;44529;47.464;19.014;2022-07-12T14:52:51;0.40;;;0.40;;
58760;SDS011;44529;47.464;19.014;2022-07-12T14:55:54;3.12;;;0.65;;
58760;SDS011;44529;47.464;19.014;2022-07-12T14:58:56;1.23;;;0.50;;
58760;SDS011;44529;47.464;19.014;2022-07-12T15:01:59;0.98;;;0.45;;
58760;SDS011;44529;47.464;19.014;2022-07-12T15:05:01;2.05;;;0.57;;
58760;SDS011;44529;47.464;19.014;2022-07-12T15:08:07;3.78;;;0.95;;
58760;SDS011;44529;47.464;19.014;2022-07-12T15:11:10;0.60;;;0.57;;
58760;SDS011;44529;47.464;19.014;2022-07-12T15:14:12;3.22;;;0.60;;
58760;SDS011;44529;47.464;19.014;2022-07-12T15:17:15;1.08;;;0.57;;
58760;SDS011;44529;47.464;19.014;2022-07-12T15:20:18;2.85;;;0.60;;
58760;SDS011;44529;47.464;19.014;2022-07-12T15:23:21;0.52;;;0.50;;
58760;SDS011;44529;47.464;19.014;2022-07-12T15:26:23;1.90;;;0.40;;
58760;SDS011;44529;47.464;19.014;2022-07-12T15:29:26;1.15;;;0.55;;
58760;SDS011;44529;47.464;19.014;2022-07-12T15:32:28;0.70;;;0.60;;
58760;SDS011;44529;47.464;19.014;2022-07-12T15:35:31;2.90;;;0.47;;
58760;SDS011;44529;47.464;19.014;2022-07-12T15:38:33;1.85;;;0.70;;
58760;SDS011;44529;47.464;19.014;2022-07-12T15:41:36;4.35;;;0.95;;
58760;SDS011;44529;47.464;19.014;2022-07-12T15:44:38;3.90;;;0.55;;
58760;SDS011;44529;47.464;19.014;2022-07-12T15:47:40;0.50;;;0.50;;
58760;SDS011;44529;47.464;19.014;2022-07-12T15:50:43;1.45;;;0.52;;
58760;SDS011;44529;47.464;19.014;2022-07-12T15:53:45;1.20;;;0.50;;
58760;SDS011;44529;47.464;19.014;2022-07-12T15:56:48;4.05;;;0.73;;
58760;SDS011;44529;47.464;19.014;2022-07-12T15:59:57;2.78;;;0.75;;
58760;SDS011;44529;47.464;19.014;2022-07-12T16:03:00;2.05;;;0.70;;
58760;SDS011;44529;47.464;19.014;2022-07-12T16:06:03;3.70;;;1.10;;
58760;SDS011;44529;47.464;19.014;2022-07-12T16:09:05;3.35;;;0.77;;
58760;SDS011;44529;47.464;19.014;2022-07-12T16:12:08;2.33;;;0.65;;
58760;SDS011;44529;47.464;19.014;2022-07-12T16:15:11;3.28;;;0.60;;
58760;SDS011;44529;47.464;19.014;2022-07-12T16:18:13;0.95;;;0.50;;
58760;SDS011;44529;47.464;19.014;2022-07-12T16:21:16;3.37;;;0.60;;
58760;SDS011;44529;47.464;19.014;2022-07-12T16:24:21;2.78;;;0.70;;
58760;SDS011;44529;47.464;19.014;2022-07-12T16:27:23;2.12;;;0.75;;
58760;SDS011;44529;47.464;19.014;2022-07-12T16:30:26;2.90;;;0.50;;
58760;SDS011;44529;47.464;19.014;2022-07-12T16:33:29;2.03;;;0.60;;
58760;SDS011;44529;47.464;19.014;2022-07-12T16:36:32;3.60;;;0.65;;
58760;SDS011;44529;47.464;19.014;2022-07-12T16:39:34;1.40;;;0.90;;
58760;SDS011;44529;47.464;19.014;2022-07-12T16:42:36;2.35;;;0.62;;
58760;SDS011;44529;47.464;19.014;2022-07-12T16:45:44;1.45;;;0.60;;
58760;SDS011;44529;47.464;19.014;2022-07-12T16:48:46;1.15;;;0.60;;
58760;SDS011;44529;47.464;19.014;2022-07-12T16:51:54;0.82;;;0.50;;
58760;SDS011;44529;47.464;19.014;2022-07-12T16:54:57;4.18;;;0.80;;
58760;SDS011;44529;47.464;19.014;2022-07-12T16:57:59;2.92;;;0.80;;
58760;SDS011;44529;47.464;19.014;2022-07-12T17:01:02;3.25;;;0.80;;
58760;SDS011;44529;47.464;19.014;2022-07-12T17:04:04;2.33;;;0.47;;
58760;SDS011;44529;47.464;19.014;2022-07-12T17:07:07;0.70;;;0.70;;
58760;SDS011;44529;47.464;19.014;2022-07-12T17:10:09;0.93;;;0.55;;
58760;SDS011;44529;47.464;19.014;2022-07-12T17:13:12;1.65;;;0.50;;
58760;SDS011;44529;47.464;19.014;2022-07-12T17:16:14;6.62;;;0.73;;
58760;SDS011;44529;47.464;19.014;2022-07-12T17:19:18;1.42;;;0.70;;
58760;SDS011;44529;47.464;19.014;2022-07-12T17:22:20;2.70;;;0.60;;
58760;SDS011;44529;47.464;19.014;2022-07-12T17:25:22;2.58;;;0.62;;
58760;SDS011;44529;47.464;19.014;2022-07-12T17:28:25;1.73;;;0.95;;
58760;SDS011;44529;47.464;19.014;2022-07-12T17:31:27;2.60;;;0.62;;
58760;SDS011;44529;47.464;19.014;2022-07-12T17:34:30;1.12;;;0.80;;
58760;SDS011;44529;47.464;19.014;2022-07-12T17:37:33;2.92;;;0.70;;
58760;SDS011;44529;47.464;19.014;2022-07-12T17:40:35;3.08;;;1.02;;
58760;SDS011;44529;47.464;19.014;2022-07-12T17:43:37;2.72;;;0.70;;
58760;SDS011;44529;47.464;19.014;2022-07-12T17:46:40;1.70;;;0.80;;
58760;SDS011;44529;47.464;19.014;2022-07-12T17:49:42;2.53;;;0.90;;
58760;SDS011;44529;47.464;19.014;2022-07-12T17:52:45;3.37;;;0.90;;
58760;SDS011;44529;47.464;19.014;2022-07-12T17:55:47;4.62;;;0.80;;
58760;SDS011;44529;47.464;19.014;2022-07-12T17:58:49;1.42;;;0.88;;
58760;SDS011;44529;47.464;19.014;2022-07-12T18:01:52;2.50;;;0.80;;
58760;SDS011;44529;47.464;19.014;2022-07-12T18:04:54;3.92;;;1.00;;
58760;SDS011;44529;47.464;19.014;2022-07-12T18:07:57;2.92;;;1.08;;
58760;SDS011;44529;47.464;19.014;2022-07-12T18:11:00;2.50;;;0.65;;
58760;SDS011;44529;47.464;19.014;2022-07-12T18:14:02;0.98;;;0.50;;
58760;SDS011;44529;47.464;19.014;2022-07-12T18:17:23;2.87;;;0.80;;
58760;SDS011;44529;47.464;19.014;2022-07-12T18:20:44;2.67;;;0.80;;
58760;SDS011;44529;47.464;19.014;2022-07-12T18:23:53;6.40;;;0.90;;
58760;SDS011;44529;47.464;19.014;2022-07-12T18:26:55;1.48;;;0.70;;
58760;SDS011;44529;47.464;19.014;2022-07-12T18:29:58;3.22;;;0.93;;
58760;SDS011;44529;47.464;19.014;2022-07-12T18:33:00;2.45;;;0.80;;
58760;SDS011;44529;47.464;19.014;2022-07-12T18:36:02;2.53;;;1.10;;
58760;SDS011;44529;47.464;19.014;2022-07-12T18:39:05;5.47;;;1.10;;